Eriksdale, Canada
Current Conditions -  °F | °C
As of 10:00 AM on Monday 26 Jan 2015 (Local Time) from CYWG Reporting Station
Overcast Overcast  
Wind Chill: 18°   Ceiling: 1900
Heat Index: 30°   Visibility: 15mi
Dew Point: 25°   Wind: 20mph
Humidity: 80%   Direction: 330°NNW
Pressure: 29.78"   Gusts: NA
Location:  50.87°N, 98.1°W
Report Text: CYWG 261600Z 33017KT 15SM OVC019 M01/M04 A2978 RMK SC8 SLP100
Loading
Personal Weather Stations






























Interactive Weather Map New forecast layout! Learn more

10-Day Weather Forecast

Advertisements
Track Severe Weather on mobile